sensor_id;sensor_type;location;lat;lon;timestamp;P1;durP1;ratioP1;P2;durP2;ratioP2
69534;SDS011;56754;51.568;5.048;2023-02-12T00:00:41;6.20;;;2.92;;
69534;SDS011;56754;51.568;5.048;2023-02-12T00:03:08;6.77;;;2.90;;
69534;SDS011;56754;51.568;5.048;2023-02-12T00:05:36;6.50;;;3.13;;
69534;SDS011;56754;51.568;5.048;2023-02-12T00:08:02;6.72;;;2.88;;
69534;SDS011;56754;51.568;5.048;2023-02-12T00:10:28;6.57;;;2.90;;
69534;SDS011;56754;51.568;5.048;2023-02-12T00:12:53;5.87;;;2.77;;
69534;SDS011;56754;51.568;5.048;2023-02-12T00:15:19;6.77;;;3.13;;
69534;SDS011;56754;51.568;5.048;2023-02-12T00:17:44;6.65;;;2.70;;
69534;SDS011;56754;51.568;5.048;2023-02-12T00:20:10;7.53;;;3.37;;
69534;SDS011;56754;51.568;5.048;2023-02-12T00:22:35;5.57;;;2.78;;
69534;SDS011;56754;51.568;5.048;2023-02-12T00:25:01;6.33;;;3.10;;
69534;SDS011;56754;51.568;5.048;2023-02-12T00:27:26;8.83;;;3.10;;
69534;SDS011;56754;51.568;5.048;2023-02-12T00:29:51;6.90;;;3.13;;
69534;SDS011;56754;51.568;5.048;2023-02-12T00:32:17;6.20;;;3.03;;
69534;SDS011;56754;51.568;5.048;2023-02-12T00:34:42;6.40;;;3.20;;
69534;SDS011;56754;51.568;5.048;2023-02-12T00:37:07;6.40;;;3.00;;
69534;SDS011;56754;51.568;5.048;2023-02-12T00:39:32;6.23;;;3.30;;
69534;SDS011;56754;51.568;5.048;2023-02-12T00:41:58;6.27;;;3.23;;
69534;SDS011;56754;51.568;5.048;2023-02-12T00:44:23;6.88;;;3.17;;
69534;SDS011;56754;51.568;5.048;2023-02-12T00:46:48;6.77;;;2.90;;
69534;SDS011;56754;51.568;5.048;2023-02-12T00:49:13;6.13;;;2.80;;
69534;SDS011;56754;51.568;5.048;2023-02-12T00:51:39;6.77;;;3.00;;
69534;SDS011;56754;51.568;5.048;2023-02-12T00:54:04;6.30;;;3.00;;
69534;SDS011;56754;51.568;5.048;2023-02-12T00:56:30;6.90;;;3.40;;
69534;SDS011;56754;51.568;5.048;2023-02-12T00:58:55;5.37;;;2.50;;
69534;SDS011;56754;51.568;5.048;2023-02-12T01:01:20;6.57;;;3.30;;
69534;SDS011;56754;51.568;5.048;2023-02-12T01:03:46;7.23;;;3.10;;
69534;SDS011;56754;51.568;5.048;2023-02-12T01:06:11;7.10;;;3.20;;
69534;SDS011;56754;51.568;5.048;2023-02-12T01:08:36;6.67;;;3.30;;
69534;SDS011;56754;51.568;5.048;2023-02-12T01:11:03;6.30;;;3.05;;
69534;SDS011;56754;51.568;5.048;2023-02-12T01:13:29;5.97;;;3.10;;
69534;SDS011;56754;51.568;5.048;2023-02-12T01:16:05;6.72;;;3.20;;
69534;SDS011;56754;51.568;5.048;2023-02-12T01:18:33;7.68;;;3.45;;
69534;SDS011;56754;51.568;5.048;2023-02-12T01:21:00;7.40;;;3.50;;
69534;SDS011;56754;51.568;5.048;2023-02-12T01:23:25;7.00;;;3.43;;
69534;SDS011;56754;51.568;5.048;2023-02-12T01:25:51;7.03;;;3.00;;
69534;SDS011;56754;51.568;5.048;2023-02-12T01:28:16;7.57;;;3.57;;
69534;SDS011;56754;51.568;5.048;2023-02-12T01:30:41;7.83;;;3.50;;
69534;SDS011;56754;51.568;5.048;2023-02-12T01:33:06;6.17;;;3.00;;
69534;SDS011;56754;51.568;5.048;2023-02-12T01:35:32;7.00;;;3.78;;
69534;SDS011;56754;51.568;5.048;2023-02-12T01:37:57;6.87;;;3.40;;
69534;SDS011;56754;51.568;5.048;2023-02-12T01:40:22;7.60;;;3.30;;
69534;SDS011;56754;51.568;5.048;2023-02-12T01:42:48;6.97;;;3.50;;
69534;SDS011;56754;51.568;5.048;2023-02-12T01:47:43;6.43;;;3.20;;
69534;SDS011;56754;51.568;5.048;2023-02-12T01:50:10;6.50;;;3.13;;
69534;SDS011;56754;51.568;5.048;2023-02-12T01:52:40;6.65;;;3.20;;
69534;SDS011;56754;51.568;5.048;2023-02-12T01:55:09;6.55;;;3.53;;
69534;SDS011;56754;51.568;5.048;2023-02-12T01:57:36;6.57;;;3.30;;
69534;SDS011;56754;51.568;5.048;2023-02-12T02:00:06;6.72;;;3.67;;
69534;SDS011;56754;51.568;5.048;2023-02-12T02:02:37;8.02;;;3.80;;
69534;SDS011;56754;51.568;5.048;2023-02-12T02:05:03;7.10;;;3.72;;
69534;SDS011;56754;51.568;5.048;2023-02-12T02:07:30;8.25;;;4.15;;
69534;SDS011;56754;51.568;5.048;2023-02-12T02:09:56;7.47;;;3.70;;
69534;SDS011;56754;51.568;5.048;2023-02-12T02:12:22;8.73;;;3.60;;
69534;SDS011;56754;51.568;5.048;2023-02-12T02:14:49;7.63;;;3.83;;
69534;SDS011;56754;51.568;5.048;2023-02-12T02:33:58;7.00;;;3.60;;
69534;SDS011;56754;51.568;5.048;2023-02-12T02:44:52;7.22;;;3.75;;
69534;SDS011;56754;51.568;5.048;2023-02-12T02:47:21;7.40;;;3.70;;
69534;SDS011;56754;51.568;5.048;2023-02-12T02:50:08;7.70;;;3.85;;
69534;SDS011;56754;51.568;5.048;2023-02-12T02:52:55;7.65;;;3.72;;
69534;SDS011;56754;51.568;5.048;2023-02-12T02:55:27;7.70;;;3.50;;
69534;SDS011;56754;51.568;5.048;2023-02-12T02:58:00;8.15;;;3.92;;
69534;SDS011;56754;51.568;5.048;2023-02-12T03:00:47;6.20;;;3.42;;
69534;SDS011;56754;51.568;5.048;2023-02-12T03:03:18;6.45;;;3.47;;
69534;SDS011;56754;51.568;5.048;2023-02-12T03:05:52;8.05;;;4.15;;
69534;SDS011;56754;51.568;5.048;2023-02-12T03:08:24;7.60;;;3.63;;
69534;SDS011;56754;51.568;5.048;2023-02-12T03:10:59;8.20;;;4.15;;
69534;SDS011;56754;51.568;5.048;2023-02-12T03:13:45;7.55;;;3.90;;
69534;SDS011;56754;51.568;5.048;2023-02-12T03:19:16;6.85;;;3.80;;
69534;SDS011;56754;51.568;5.048;2023-02-12T03:21:49;8.57;;;4.07;;
69534;SDS011;56754;51.568;5.048;2023-02-12T03:27:06;6.82;;;3.72;;
69534;SDS011;56754;51.568;5.048;2023-02-12T03:29:35;10.18;;;4.03;;
69534;SDS011;56754;51.568;5.048;2023-02-12T03:32:04;7.17;;;3.70;;
69534;SDS011;56754;51.568;5.048;2023-02-12T03:40:35;6.47;;;3.50;;
69534;SDS011;56754;51.568;5.048;2023-02-12T03:43:09;6.88;;;3.47;;
69534;SDS011;56754;51.568;5.048;2023-02-12T03:51:00;7.95;;;3.90;;
69534;SDS011;56754;51.568;5.048;2023-02-12T03:53:29;7.43;;;3.92;;
69534;SDS011;56754;51.568;5.048;2023-02-12T03:55:57;7.97;;;4.13;;
69534;SDS011;56754;51.568;5.048;2023-02-12T03:58:29;8.53;;;4.53;;
69534;SDS011;56754;51.568;5.048;2023-02-12T04:00:58;7.43;;;4.20;;
69534;SDS011;56754;51.568;5.048;2023-02-12T04:03:24;6.85;;;3.72;;
69534;SDS011;56754;51.568;5.048;2023-02-12T04:05:50;8.90;;;4.30;;
69534;SDS011;56754;51.568;5.048;2023-02-12T04:08:15;8.17;;;4.47;;
69534;SDS011;56754;51.568;5.048;2023-02-12T04:13:40;7.90;;;4.33;;
69534;SDS011;56754;51.568;5.048;2023-02-12T04:18:49;7.90;;;4.18;;
69534;SDS011;56754;51.568;5.048;2023-02-12T04:30:24;8.60;;;4.40;;
69534;SDS011;56754;51.568;5.048;2023-02-12T04:33:07;8.27;;;4.15;;
69534;SDS011;56754;51.568;5.048;2023-02-12T04:35:42;8.95;;;4.50;;
69534;SDS011;56754;51.568;5.048;2023-02-12T04:40:48;7.87;;;4.43;;
69534;SDS011;56754;51.568;5.048;2023-02-12T04:43:24;7.82;;;4.50;;
69534;SDS011;56754;51.568;5.048;2023-02-12T04:45:51;8.95;;;4.15;;
69534;SDS011;56754;51.568;5.048;2023-02-12T04:48:16;9.67;;;4.67;;
69534;SDS011;56754;51.568;5.048;2023-02-12T04:50:42;8.30;;;4.33;;
69534;SDS011;56754;51.568;5.048;2023-02-12T04:53:07;8.30;;;4.88;;
69534;SDS011;56754;51.568;5.048;2023-02-12T04:55:34;8.73;;;4.70;;
69534;SDS011;56754;51.568;5.048;2023-02-12T04:57:59;7.73;;;4.47;;
69534;SDS011;56754;51.568;5.048;2023-02-12T05:00:25;8.23;;;4.50;;
69534;SDS011;56754;51.568;5.048;2023-02-12T05:02:50;8.48;;;4.43;;
69534;SDS011;56754;51.568;5.048;2023-02-12T05:05:16;7.60;;;4.20;;
69534;SDS011;56754;51.568;5.048;2023-02-12T05:07:41;8.60;;;5.07;;
69534;SDS011;56754;51.568;5.048;2023-02-12T05:10:07;9.10;;;4.90;;
69534;SDS011;56754;51.568;5.048;2023-02-12T05:12:32;8.43;;;4.90;;
69534;SDS011;56754;51.568;5.048;2023-02-12T05:14:58;8.83;;;4.53;;
69534;SDS011;56754;51.568;5.048;2023-02-12T05:17:23;7.78;;;4.30;;
69534;SDS011;56754;51.568;5.048;2023-02-12T05:19:48;9.10;;;4.77;;
69534;SDS011;56754;51.568;5.048;2023-02-12T05:22:14;7.65;;;4.25;;
69534;SDS011;56754;51.568;5.048;2023-02-12T05:24:39;9.33;;;5.03;;
69534;SDS011;56754;51.568;5.048;2023-02-12T05:27:05;8.17;;;4.40;;
69534;SDS011;56754;51.568;5.048;2023-02-12T05:29:30;9.27;;;4.73;;
69534;SDS011;56754;51.568;5.048;2023-02-12T05:31:55;9.00;;;4.40;;
69534;SDS011;56754;51.568;5.048;2023-02-12T05:34:20;8.70;;;4.90;;
69534;SDS011;56754;51.568;5.048;2023-02-12T05:36:46;8.70;;;4.90;;
69534;SDS011;56754;51.568;5.048;2023-02-12T05:39:11;8.30;;;4.93;;
69534;SDS011;56754;51.568;5.048;2023-02-12T05:41:36;8.33;;;4.90;;
69534;SDS011;56754;51.568;5.048;2023-02-12T05:44:02;8.43;;;4.57;;
69534;SDS011;56754;51.568;5.048;2023-02-12T05:46:29;8.10;;;4.72;;
69534;SDS011;56754;51.568;5.048;2023-02-12T05:48:54;8.63;;;4.50;;
69534;SDS011;56754;51.568;5.048;2023-02-12T05:51:21;8.60;;;5.13;;
69534;SDS011;56754;51.568;5.048;2023-02-12T05:53:52;7.78;;;4.53;;
69534;SDS011;56754;51.568;5.048;2023-02-12T05:56:22;8.13;;;4.60;;
69534;SDS011;56754;51.568;5.048;2023-02-12T05:58:58;9.00;;;5.10;;
69534;SDS011;56754;51.568;5.048;2023-02-12T06:01:27;7.82;;;4.60;;
69534;SDS011;56754;51.568;5.048;2023-02-12T06:04:03;8.57;;;4.75;;
69534;SDS011;56754;51.568;5.048;2023-02-12T06:06:31;8.27;;;4.68;;
69534;SDS011;56754;51.568;5.048;2023-02-12T06:08:57;8.70;;;4.97;;
69534;SDS011;56754;51.568;5.048;2023-02-12T06:11:23;9.20;;;4.97;;
69534;SDS011;56754;51.568;5.048;2023-02-12T06:13:49;8.07;;;4.40;;
69534;SDS011;56754;51.568;5.048;2023-02-12T06:16:15;7.63;;;4.18;;
69534;SDS011;56754;51.568;5.048;2023-02-12T06:18:42;8.15;;;4.57;;
69534;SDS011;56754;51.568;5.048;2023-02-12T06:21:07;9.13;;;4.40;;
69534;SDS011;56754;51.568;5.048;2023-02-12T06:23:32;10.33;;;5.43;;
69534;SDS011;56754;51.568;5.048;2023-02-12T06:25:58;8.00;;;4.60;;
69534;SDS011;56754;51.568;5.048;2023-02-12T06:28:23;8.50;;;4.90;;
69534;SDS011;56754;51.568;5.048;2023-02-12T06:30:48;8.65;;;5.15;;
69534;SDS011;56754;51.568;5.048;2023-02-12T06:33:14;8.97;;;4.97;;
69534;SDS011;56754;51.568;5.048;2023-02-12T06:35:39;10.70;;;5.27;;
69534;SDS011;56754;51.568;5.048;2023-02-12T06:38:04;7.63;;;4.70;;
69534;SDS011;56754;51.568;5.048;2023-02-12T06:40:30;9.10;;;4.70;;
69534;SDS011;56754;51.568;5.048;2023-02-12T06:42:55;8.50;;;4.90;;
69534;SDS011;56754;51.568;5.048;2023-02-12T06:45:21;8.07;;;4.60;;
69534;SDS011;56754;51.568;5.048;2023-02-12T06:47:46;8.97;;;4.87;;
69534;SDS011;56754;51.568;5.048;2023-02-12T06:50:12;10.27;;;5.10;;
69534;SDS011;56754;51.568;5.048;2023-02-12T06:52:37;11.63;;;5.23;;
69534;SDS011;56754;51.568;5.048;2023-02-12T06:55:02;9.43;;;5.17;;
69534;SDS011;56754;51.568;5.048;2023-02-12T06:57:28;8.77;;;4.77;;
69534;SDS011;56754;51.568;5.048;2023-02-12T06:59:53;9.93;;;5.35;;
69534;SDS011;56754;51.568;5.048;2023-02-12T07:02:18;9.30;;;5.37;;
69534;SDS011;56754;51.568;5.048;2023-02-12T07:04:44;10.33;;;5.50;;
69534;SDS011;56754;51.568;5.048;2023-02-12T07:07:09;9.73;;;5.43;;
69534;SDS011;56754;51.568;5.048;2023-02-12T07:09:34;9.30;;;5.30;;
69534;SDS011;56754;51.568;5.048;2023-02-12T07:12:00;9.27;;;5.23;;
69534;SDS011;56754;51.568;5.048;2023-02-12T07:14:25;9.30;;;5.20;;
69534;SDS011;56754;51.568;5.048;2023-02-12T07:16:51;9.13;;;5.18;;
69534;SDS011;56754;51.568;5.048;2023-02-12T07:19:16;9.70;;;5.07;;
69534;SDS011;56754;51.568;5.048;2023-02-12T07:21:41;8.77;;;5.13;;
69534;SDS011;56754;51.568;5.048;2023-02-12T07:24:08;9.27;;;5.33;;
69534;SDS011;56754;51.568;5.048;2023-02-12T07:26:34;8.57;;;4.93;;
69534;SDS011;56754;51.568;5.048;2023-02-12T07:29:00;8.70;;;4.80;;
69534;SDS011;56754;51.568;5.048;2023-02-12T07:31:25;8.63;;;5.20;;
69534;SDS011;56754;51.568;5.048;2023-02-12T07:33:54;9.27;;;5.73;;
69534;SDS011;56754;51.568;5.048;2023-02-12T07:36:20;9.23;;;5.72;;
69534;SDS011;56754;51.568;5.048;2023-02-12T07:38:46;8.63;;;5.40;;
69534;SDS011;56754;51.568;5.048;2023-02-12T07:43:45;8.23;;;5.15;;
69534;SDS011;56754;51.568;5.048;2023-02-12T07:46:18;9.27;;;5.22;;
69534;SDS011;56754;51.568;5.048;2023-02-12T07:48:46;8.73;;;5.15;;
69534;SDS011;56754;51.568;5.048;2023-02-12T07:51:16;9.00;;;5.03;;
69534;SDS011;56754;51.568;5.048;2023-02-12T07:53:41;9.15;;;5.30;;
69534;SDS011;56754;51.568;5.048;2023-02-12T07:56:08;9.35;;;5.68;;
69534;SDS011;56754;51.568;5.048;2023-02-12T07:58:35;10.07;;;5.43;;
69534;SDS011;56754;51.568;5.048;2023-02-12T08:01:11;10.30;;;5.63;;
69534;SDS011;56754;51.568;5.048;2023-02-12T08:03:45;8.55;;;5.30;;
69534;SDS011;56754;51.568;5.048;2023-02-12T08:06:22;9.05;;;5.32;;
69534;SDS011;56754;51.568;5.048;2023-02-12T08:08:49;11.25;;;6.05;;
69534;SDS011;56754;51.568;5.048;2023-02-12T08:11:16;9.13;;;5.73;;
69534;SDS011;56754;51.568;5.048;2023-02-12T08:13:41;9.85;;;5.60;;
69534;SDS011;56754;51.568;5.048;2023-02-12T08:16:08;9.57;;;5.30;;
69534;SDS011;56754;51.568;5.048;2023-02-12T08:18:41;11.02;;;6.18;;
69534;SDS011;56754;51.568;5.048;2023-02-12T08:21:07;9.23;;;5.83;;
69534;SDS011;56754;51.568;5.048;2023-02-12T08:23:35;9.20;;;5.75;;
69534;SDS011;56754;51.568;5.048;2023-02-12T08:26:04;9.50;;;5.75;;
69534;SDS011;56754;51.568;5.048;2023-02-12T08:28:41;10.37;;;5.40;;
69534;SDS011;56754;51.568;5.048;2023-02-12T08:31:12;10.32;;;5.60;;
69534;SDS011;56754;51.568;5.048;2023-02-12T08:33:39;10.20;;;5.55;;
69534;SDS011;56754;51.568;5.048;2023-02-12T08:36:05;9.00;;;5.70;;
69534;SDS011;56754;51.568;5.048;2023-02-12T08:38:35;10.10;;;5.88;;
69534;SDS011;56754;51.568;5.048;2023-02-12T08:41:02;10.40;;;5.85;;
69534;SDS011;56754;51.568;5.048;2023-02-12T08:43:29;9.68;;;5.75;;
69534;SDS011;56754;51.568;5.048;2023-02-12T08:45:59;11.80;;;6.20;;
69534;SDS011;56754;51.568;5.048;2023-02-12T08:48:25;10.07;;;5.60;;
69534;SDS011;56754;51.568;5.048;2023-02-12T08:50:51;9.20;;;5.63;;
69534;SDS011;56754;51.568;5.048;2023-02-12T08:53:16;10.43;;;6.33;;
69534;SDS011;56754;51.568;5.048;2023-02-12T08:55:47;9.93;;;6.17;;
69534;SDS011;56754;51.568;5.048;2023-02-12T08:58:15;9.85;;;5.90;;
69534;SDS011;56754;51.568;5.048;2023-02-12T09:00:40;9.70;;;6.00;;
69534;SDS011;56754;51.568;5.048;2023-02-12T09:03:06;10.73;;;5.83;;
69534;SDS011;56754;51.568;5.048;2023-02-12T09:05:31;11.00;;;5.67;;
69534;SDS011;56754;51.568;5.048;2023-02-12T09:07:57;10.03;;;5.50;;
69534;SDS011;56754;51.568;5.048;2023-02-12T09:10:22;10.25;;;5.72;;
69534;SDS011;56754;51.568;5.048;2023-02-12T09:12:47;10.57;;;5.90;;
69534;SDS011;56754;51.568;5.048;2023-02-12T09:15:12;10.33;;;5.60;;
69534;SDS011;56754;51.568;5.048;2023-02-12T09:17:38;9.90;;;5.60;;
69534;SDS011;56754;51.568;5.048;2023-02-12T09:20:03;9.13;;;5.13;;
69534;SDS011;56754;51.568;5.048;2023-02-12T09:22:29;9.93;;;5.35;;
69534;SDS011;56754;51.568;5.048;2023-02-12T09:24:54;8.60;;;5.30;;
69534;SDS011;56754;51.568;5.048;2023-02-12T09:27:19;9.23;;;5.30;;
69534;SDS011;56754;51.568;5.048;2023-02-12T09:29:45;12.17;;;5.77;;
69534;SDS011;56754;51.568;5.048;2023-02-12T09:32:10;9.43;;;5.17;;
69534;SDS011;56754;51.568;5.048;2023-02-12T09:34:35;8.60;;;5.53;;
69534;SDS011;56754;51.568;5.048;2023-02-12T09:37:00;10.47;;;5.53;;
69534;SDS011;56754;51.568;5.048;2023-02-12T09:39:26;10.27;;;5.30;;
69534;SDS011;56754;51.568;5.048;2023-02-12T09:47:47;9.25;;;5.50;;
69534;SDS011;56754;51.568;5.048;2023-02-12T09:50:47;11.17;;;5.27;;
69534;SDS011;56754;51.568;5.048;2023-02-12T09:53:22;9.30;;;5.53;;
69534;SDS011;56754;51.568;5.048;2023-02-12T09:55:50;9.63;;;5.60;;
69534;SDS011;56754;51.568;5.048;2023-02-12T09:58:40;9.93;;;5.80;;
69534;SDS011;56754;51.568;5.048;2023-02-12T10:01:25;9.45;;;5.25;;
69534;SDS011;56754;51.568;5.048;2023-02-12T10:03:51;12.23;;;5.70;;
69534;SDS011;56754;51.568;5.048;2023-02-12T10:06:19;8.90;;;5.38;;
69534;SDS011;56754;51.568;5.048;2023-02-12T10:14:23;9.52;;;5.57;;
69534;SDS011;56754;51.568;5.048;2023-02-12T10:17:12;9.23;;;5.35;;
69534;SDS011;56754;51.568;5.048;2023-02-12T10:25:25;11.35;;;5.63;;
69534;SDS011;56754;51.568;5.048;2023-02-12T10:28:00;10.95;;;5.50;;
69534;SDS011;56754;51.568;5.048;2023-02-12T10:33:10;8.65;;;5.10;;
69534;SDS011;56754;51.568;5.048;2023-02-12T10:35:42;11.20;;;5.97;;
69534;SDS011;56754;51.568;5.048;2023-02-12T10:38:15;9.43;;;5.68;;
69534;SDS011;56754;51.568;5.048;2023-02-12T10:40:44;9.45;;;5.53;;
69534;SDS011;56754;51.568;5.048;2023-02-12T10:43:11;10.82;;;6.10;;
69534;SDS011;56754;51.568;5.048;2023-02-12T10:45:38;9.13;;;5.43;;
69534;SDS011;56754;51.568;5.048;2023-02-12T10:48:09;9.55;;;5.82;;
69534;SDS011;56754;51.568;5.048;2023-02-12T10:51:03;10.15;;;5.93;;
69534;SDS011;56754;51.568;5.048;2023-02-12T10:58:42;9.77;;;6.00;;
69534;SDS011;56754;51.568;5.048;2023-02-12T11:01:36;9.67;;;5.57;;
69534;SDS011;56754;51.568;5.048;2023-02-12T11:07:00;11.70;;;6.75;;
69534;SDS011;56754;51.568;5.048;2023-02-12T11:09:34;12.65;;;6.55;;
69534;SDS011;56754;51.568;5.048;2023-02-12T11:12:01;12.77;;;7.00;;
69534;SDS011;56754;51.568;5.048;2023-02-12T11:14:27;12.93;;;6.93;;
69534;SDS011;56754;51.568;5.048;2023-02-12T11:16:58;13.07;;;7.18;;
69534;SDS011;56754;51.568;5.048;2023-02-12T11:19:29;13.15;;;7.13;;
69534;SDS011;56754;51.568;5.048;2023-02-12T11:22:05;13.30;;;7.30;;
69534;SDS011;56754;51.568;5.048;2023-02-12T11:24:37;12.77;;;7.30;;
69534;SDS011;56754;51.568;5.048;2023-02-12T11:29:40;12.23;;;6.95;;
69534;SDS011;56754;51.568;5.048;2023-02-12T11:32:07;14.40;;;7.88;;
69534;SDS011;56754;51.568;5.048;2023-02-12T11:34:39;13.63;;;7.68;;
69534;SDS011;56754;51.568;5.048;2023-02-12T11:37:04;14.13;;;8.10;;
69534;SDS011;56754;51.568;5.048;2023-02-12T11:39:41;14.30;;;8.40;;
69534;SDS011;56754;51.568;5.048;2023-02-12T11:44:42;15.33;;;9.10;;
69534;SDS011;56754;51.568;5.048;2023-02-12T11:47:18;14.07;;;8.38;;
69534;SDS011;56754;51.568;5.048;2023-02-12T11:50:30;18.02;;;10.30;;
69534;SDS011;56754;51.568;5.048;2023-02-12T11:52:55;20.15;;;11.00;;
69534;SDS011;56754;51.568;5.048;2023-02-12T11:55:25;21.17;;;12.10;;
69534;SDS011;56754;51.568;5.048;2023-02-12T11:57:53;17.87;;;10.13;;
69534;SDS011;56754;51.568;5.048;2023-02-12T12:05:44;18.20;;;10.15;;
69534;SDS011;56754;51.568;5.048;2023-02-12T12:08:38;20.13;;;10.77;;
69534;SDS011;56754;51.568;5.048;2023-02-12T12:11:10;22.90;;;12.83;;
69534;SDS011;56754;51.568;5.048;2023-02-12T12:13:57;17.25;;;10.15;;
69534;SDS011;56754;51.568;5.048;2023-02-12T12:16:47;21.17;;;12.82;;
69534;SDS011;56754;51.568;5.048;2023-02-12T12:19:23;18.90;;;10.68;;
69534;SDS011;56754;51.568;5.048;2023-02-12T12:22:02;19.77;;;11.18;;
69534;SDS011;56754;51.568;5.048;2023-02-12T12:27:14;21.30;;;11.40;;
69534;SDS011;56754;51.568;5.048;2023-02-12T12:30:01;17.60;;;10.00;;
69534;SDS011;56754;51.568;5.048;2023-02-12T12:32:28;18.00;;;9.98;;
69534;SDS011;56754;51.568;5.048;2023-02-12T12:34:55;18.42;;;10.30;;
69534;SDS011;56754;51.568;5.048;2023-02-12T12:37:32;19.37;;;11.00;;
69534;SDS011;56754;51.568;5.048;2023-02-12T12:55:52;20.23;;;10.45;;
69534;SDS011;56754;51.568;5.048;2023-02-12T13:07:18;21.27;;;10.90;;
69534;SDS011;56754;51.568;5.048;2023-02-12T13:10:15;19.00;;;10.75;;
69534;SDS011;56754;51.568;5.048;2023-02-12T13:18:30;21.83;;;12.32;;
69534;SDS011;56754;51.568;5.048;2023-02-12T13:29:07;21.45;;;11.77;;
69534;SDS011;56754;51.568;5.048;2023-02-12T13:31:44;23.50;;;13.80;;
69534;SDS011;56754;51.568;5.048;2023-02-12T13:34:18;28.10;;;18.43;;
69534;SDS011;56754;51.568;5.048;2023-02-12T13:36:45;27.23;;;16.70;;
69534;SDS011;56754;51.568;5.048;2023-02-12T13:51:00;19.50;;;10.07;;
69534;SDS011;56754;51.568;5.048;2023-02-12T13:58:52;18.80;;;10.15;;
69534;SDS011;56754;51.568;5.048;2023-02-12T14:07:16;19.58;;;10.75;;
69534;SDS011;56754;51.568;5.048;2023-02-12T14:12:14;18.83;;;10.05;;
69534;SDS011;56754;51.568;5.048;2023-02-12T14:14:43;19.80;;;10.37;;
69534;SDS011;56754;51.568;5.048;2023-02-12T14:19:55;20.50;;;11.43;;
69534;SDS011;56754;51.568;5.048;2023-02-12T14:24:56;18.80;;;10.43;;
69534;SDS011;56754;51.568;5.048;2023-02-12T14:27:43;19.77;;;10.45;;
69534;SDS011;56754;51.568;5.048;2023-02-12T14:37:51;18.98;;;10.55;;
69534;SDS011;56754;51.568;5.048;2023-02-12T14:42:59;17.93;;;10.40;;
69534;SDS011;56754;51.568;5.048;2023-02-12T14:45:28;21.45;;;10.57;;
69534;SDS011;56754;51.568;5.048;2023-02-12T14:47:59;18.92;;;10.50;;
69534;SDS011;56754;51.568;5.048;2023-02-12T14:50:28;18.60;;;10.07;;
69534;SDS011;56754;51.568;5.048;2023-02-12T14:53:05;21.02;;;10.50;;
69534;SDS011;56754;51.568;5.048;2023-02-12T14:55:49;18.73;;;9.97;;
69534;SDS011;56754;51.568;5.048;2023-02-12T14:58:16;19.30;;;9.95;;
69534;SDS011;56754;51.568;5.048;2023-02-12T15:00:45;18.90;;;10.13;;
69534;SDS011;56754;51.568;5.048;2023-02-12T15:03:17;20.00;;;10.25;;
69534;SDS011;56754;51.568;5.048;2023-02-12T15:05:48;19.05;;;10.95;;
69534;SDS011;56754;51.568;5.048;2023-02-12T15:11:23;18.52;;;9.88;;
69534;SDS011;56754;51.568;5.048;2023-02-12T15:21:51;19.43;;;9.40;;
69534;SDS011;56754;51.568;5.048;2023-02-12T15:24:21;17.70;;;9.23;;
69534;SDS011;56754;51.568;5.048;2023-02-12T15:26:49;16.90;;;8.65;;
69534;SDS011;56754;51.568;5.048;2023-02-12T15:29:20;16.65;;;9.70;;
69534;SDS011;56754;51.568;5.048;2023-02-12T15:31:53;15.95;;;8.55;;
69534;SDS011;56754;51.568;5.048;2023-02-12T15:34:21;17.00;;;9.03;;
69534;SDS011;56754;51.568;5.048;2023-02-12T15:36:50;16.17;;;8.93;;
69534;SDS011;56754;51.568;5.048;2023-02-12T15:39:17;17.75;;;8.63;;
69534;SDS011;56754;51.568;5.048;2023-02-12T15:41:46;18.50;;;9.02;;
69534;SDS011;56754;51.568;5.048;2023-02-12T15:44:28;17.33;;;9.20;;
69534;SDS011;56754;51.568;5.048;2023-02-12T15:49:26;17.80;;;9.65;;
69534;SDS011;56754;51.568;5.048;2023-02-12T15:51:55;16.97;;;9.77;;
69534;SDS011;56754;51.568;5.048;2023-02-12T15:54:22;16.80;;;9.40;;
69534;SDS011;56754;51.568;5.048;2023-02-12T15:56:48;15.73;;;8.30;;
69534;SDS011;56754;51.568;5.048;2023-02-12T15:59:18;15.57;;;8.50;;
69534;SDS011;56754;51.568;5.048;2023-02-12T16:01:52;16.33;;;8.35;;
69534;SDS011;56754;51.568;5.048;2023-02-12T16:04:20;16.00;;;7.65;;
69534;SDS011;56754;51.568;5.048;2023-02-12T16:06:45;14.63;;;8.10;;
69534;SDS011;56754;51.568;5.048;2023-02-12T16:09:30;15.73;;;8.35;;
69534;SDS011;56754;51.568;5.048;2023-02-12T16:11:59;13.40;;;7.40;;
69534;SDS011;56754;51.568;5.048;2023-02-12T16:16:58;13.10;;;7.47;;
69534;SDS011;56754;51.568;5.048;2023-02-12T16:19:25;13.93;;;7.80;;
69534;SDS011;56754;51.568;5.048;2023-02-12T16:24:33;13.70;;;7.15;;
69534;SDS011;56754;51.568;5.048;2023-02-12T16:27:47;13.20;;;7.35;;
69534;SDS011;56754;51.568;5.048;2023-02-12T16:29:50;13.40;;;7.37;;
69534;SDS011;56754;51.568;5.048;2023-02-12T16:32:37;12.50;;;7.38;;
69534;SDS011;56754;51.568;5.048;2023-02-12T16:40:11;14.33;;;7.00;;
69534;SDS011;56754;51.568;5.048;2023-02-12T16:47:49;12.57;;;7.07;;
69534;SDS011;56754;51.568;5.048;2023-02-12T16:50:15;13.07;;;7.35;;
69534;SDS011;56754;51.568;5.048;2023-02-12T16:52:42;15.38;;;7.32;;
69534;SDS011;56754;51.568;5.048;2023-02-12T16:55:12;13.13;;;7.17;;
69534;SDS011;56754;51.568;5.048;2023-02-12T16:57:39;14.25;;;7.68;;
69534;SDS011;56754;51.568;5.048;2023-02-12T17:00:05;14.47;;;7.73;;
69534;SDS011;56754;51.568;5.048;2023-02-12T17:02:31;14.77;;;8.25;;
69534;SDS011;56754;51.568;5.048;2023-02-12T17:04:56;13.97;;;8.00;;
69534;SDS011;56754;51.568;5.048;2023-02-12T17:07:23;14.70;;;8.00;;
69534;SDS011;56754;51.568;5.048;2023-02-12T17:09:49;13.98;;;7.97;;
69534;SDS011;56754;51.568;5.048;2023-02-12T17:12:14;16.10;;;8.43;;
69534;SDS011;56754;51.568;5.048;2023-02-12T17:14:40;14.77;;;8.18;;
69534;SDS011;56754;51.568;5.048;2023-02-12T17:17:06;14.87;;;7.33;;
69534;SDS011;56754;51.568;5.048;2023-02-12T17:19:31;14.18;;;7.63;;
69534;SDS011;56754;51.568;5.048;2023-02-12T17:21:56;13.17;;;7.40;;
69534;SDS011;56754;51.568;5.048;2023-02-12T17:24:23;14.63;;;7.77;;
69534;SDS011;56754;51.568;5.048;2023-02-12T17:26:51;15.00;;;7.82;;
69534;SDS011;56754;51.568;5.048;2023-02-12T17:29:17;13.43;;;7.47;;
69534;SDS011;56754;51.568;5.048;2023-02-12T17:31:44;15.95;;;7.80;;
69534;SDS011;56754;51.568;5.048;2023-02-12T17:34:09;14.52;;;8.00;;
69534;SDS011;56754;51.568;5.048;2023-02-12T17:36:35;15.07;;;7.50;;
69534;SDS011;56754;51.568;5.048;2023-02-12T17:39:02;15.10;;;8.25;;
69534;SDS011;56754;51.568;5.048;2023-02-12T17:41:28;15.93;;;7.93;;
69534;SDS011;56754;51.568;5.048;2023-02-12T17:43:54;14.32;;;7.38;;
69534;SDS011;56754;51.568;5.048;2023-02-12T17:46:20;14.47;;;7.90;;
69534;SDS011;56754;51.568;5.048;2023-02-12T17:48:48;14.73;;;7.63;;
69534;SDS011;56754;51.568;5.048;2023-02-12T17:51:14;14.93;;;7.80;;
69534;SDS011;56754;51.568;5.048;2023-02-12T17:53:40;15.05;;;7.93;;
69534;SDS011;56754;51.568;5.048;2023-02-12T17:56:15;14.83;;;7.90;;
69534;SDS011;56754;51.568;5.048;2023-02-12T17:58:46;15.18;;;8.02;;
69534;SDS011;56754;51.568;5.048;2023-02-12T18:01:16;15.27;;;7.70;;
69534;SDS011;56754;51.568;5.048;2023-02-12T18:03:43;15.97;;;8.50;;
69534;SDS011;56754;51.568;5.048;2023-02-12T18:06:08;16.15;;;7.97;;
69534;SDS011;56754;51.568;5.048;2023-02-12T18:08:34;15.07;;;7.70;;
69534;SDS011;56754;51.568;5.048;2023-02-12T18:11:03;14.05;;;8.20;;
69534;SDS011;56754;51.568;5.048;2023-02-12T18:13:29;16.53;;;8.20;;
69534;SDS011;56754;51.568;5.048;2023-02-12T18:15:54;14.90;;;8.23;;
69534;SDS011;56754;51.568;5.048;2023-02-12T18:18:20;14.15;;;8.07;;
69534;SDS011;56754;51.568;5.048;2023-02-12T18:20:45;15.37;;;8.17;;
69534;SDS011;56754;51.568;5.048;2023-02-12T18:23:10;17.73;;;8.87;;
69534;SDS011;56754;51.568;5.048;2023-02-12T18:25:42;15.17;;;8.03;;